Time;durP1;ratioP1;P1;durP2;ratioP2;P2;SDS_P1;SDS_P2;PMS_P1;PMS_P2;Temp;Humidity;BMP_temperature;BMP_pressure;BME280_temperature;BME280_humidity;BME280_pressure;Samples;Min_cycle;Max_cycle;Signal;HPM_P1;HPM_P2
2022/06/29 00:01:08;;;;;;;;;;;;;;;27.30;49.72;100348.87;5380896;32;44357;-71
2022/06/29 00:04:09;;;;;;;;;;;;;;;26.50;51.97;100334.25;5366362;32;35071;-84
2022/06/29 00:07:12;;;;;;;;;;;;;;;26.97;50.95;100338.03;5363536;32;35002;-76
2022/06/29 00:10:14;;;;;;;;;;;;;;;26.80;51.58;100339.03;5374342;32;34721;-70
2022/06/29 00:13:16;;;;;;;;;;;;;;;27.10;50.70;100331.34;5360895;32;36570;-78
2022/06/29 00:16:17;;;;;;;;;;;;;;;27.31;50.10;100329.00;5352393;32;34524;-69
2022/06/29 00:19:19;;;;;;;;;;;;;;;28.01;48.11;100339.16;5363831;32;34969;-83
2022/06/29 00:22:21;;;;;;;;;;;;;;;27.91;48.36;100344.78;5380903;32;34313;-69
2022/06/29 00:25:23;;;;;;;;;;;;;;;27.82;48.64;100345.78;5368252;32;34695;-88
2022/06/29 00:28:25;;;;;;;;;;;;;;;26.68;51.97;100340.38;5371593;32;34755;-71
2022/06/29 00:31:27;;;;;;;;;;;;;;;26.22;53.27;100314.75;5365380;32;34895;-85
2022/06/29 00:34:30;;;;;;;;;;;;;;;26.11;53.78;100332.88;5366172;32;34639;-70
2022/06/29 00:37:32;;;;;;;;;;;;;;;27.11;50.98;100314.13;5378431;32;35307;-70
2022/06/29 00:40:33;;;;;;;;;;;;;;;27.59;49.58;100331.31;5363598;32;34732;-70
2022/06/29 00:43:42;;;;;;;;;;;;;;;26.77;51.49;100325.88;5379272;32;34233;-70
2022/06/29 00:46:48;;;;;;;;;;;;;;;26.24;53.37;100329.75;5363827;32;47366;-85
2022/06/29 00:49:50;;;;;;;;;;;;;;;26.44;52.74;100327.66;5369631;32;35054;-70
2022/06/29 00:52:52;;;;;;;;;;;;;;;26.02;54.04;100312.34;5378951;32;35044;-71
2022/06/29 00:55:53;;;;;;;;;;;;;;;26.50;52.92;100308.13;5362561;32;34692;-71
2022/06/29 00:58:55;;;;;;;;;;;;;;;26.19;53.63;100310.53;5379779;32;35223;-84
2022/06/29 01:01:57;;;;;;;;;;;;;;;25.80;55.25;100315.56;5361540;32;35229;-84
2022/06/29 01:04:59;;;;;;;;;;;;;;;26.24;53.83;100305.50;5375536;32;34282;-69
2022/06/29 01:08:01;;;;;;;;;;;;;;;27.33;50.71;100304.53;5360454;32;35412;-87
2022/06/29 01:11:03;;;;;;;;;;;;;;;26.36;52.90;100312.28;5366729;32;34674;-71
2022/06/29 01:14:05;;;;;;;;;;;;;;;25.86;54.88;100315.78;5366696;32;34416;-71
2022/06/29 01:17:07;;;;;;;;;;;;;;;25.65;55.73;100304.53;5345661;32;36669;-71
2022/06/29 01:20:09;;;;;;;;;;;;;;;25.64;55.55;100306.38;5387549;32;35542;-71
2022/06/29 01:23:11;;;;;;;;;;;;;;;25.96;54.37;100306.75;5365071;32;34235;-83
2022/06/29 01:26:13;;;;;;;;;;;;;;;26.35;53.24;100307.06;5377641;32;35653;-69
2022/06/29 01:29:15;;;;;;;;;;;;;;;27.13;50.64;100309.44;5365249;32;34965;-84
2022/06/29 01:32:18;;;;;;;;;;;;;;;25.91;54.38;100302.69;5366297;32;34868;-76
2022/06/29 01:35:22;;;;;;;;;;;;;;;26.27;53.25;100307.84;5377968;32;34249;-70
2022/06/29 01:38:24;;;;;;;;;;;;;;;26.31;53.05;100306.53;5365301;32;34822;-83
2022/06/29 01:41:26;;;;;;;;;;;;;;;26.42;52.87;100311.66;5380807;32;36075;-83
2022/06/29 01:44:28;;;;;;;;;;;;;;;26.17;53.38;100302.63;5364986;32;35636;-85
2022/06/29 01:47:30;;;;;;;;;;;;;;;25.76;54.75;100304.28;5378435;32;34319;-69
2022/06/29 01:50:32;;;;;;;;;;;;;;;25.49;56.02;100302.56;5367880;32;35743;-69
2022/06/29 01:53:34;;;;;;;;;;;;;;;25.33;56.56;100306.00;5365480;32;34726;-71
2022/06/29 01:56:36;;;;;;;;;;;;;;;25.36;56.66;100310.19;5379919;32;35492;-87
2022/06/29 01:59:38;;;;;;;;;;;;;;;25.81;55.05;100299.25;5361966;32;45633;-69
2022/06/29 02:02:39;;;;;;;;;;;;;;;25.38;56.94;100300.16;5380316;32;34526;-69
2022/06/29 02:05:41;;;;;;;;;;;;;;;25.24;57.39;100298.84;5359349;32;34896;-69
2022/06/29 02:08:44;;;;;;;;;;;;;;;25.51;56.65;100289.81;5377162;32;34249;-86
2022/06/29 02:11:46;;;;;;;;;;;;;;;25.20;58.56;100304.72;5371945;32;35024;-77
2022/06/29 02:14:48;;;;;;;;;;;;;;;25.39;57.87;100308.06;5348912;32;34824;-70
2022/06/29 02:17:50;;;;;;;;;;;;;;;25.69;56.57;100289.72;5370648;32;34411;-71
2022/06/29 02:20:52;;;;;;;;;;;;;;;25.41;56.91;100291.75;5368041;32;35033;-69
2022/06/29 02:23:54;;;;;;;;;;;;;;;24.88;58.90;100297.19;5378974;32;35510;-70
2022/06/29 02:26:56;;;;;;;;;;;;;;;24.75;59.29;100297.56;5367057;32;35179;-86
2022/06/29 02:29:58;;;;;;;;;;;;;;;24.68;59.69;100294.66;5379531;32;33802;-85
2022/06/29 02:36:20;;;;;;;;;;;;;;;24.29;61.47;100283.28;5367976;32;35374;-76
2022/06/29 02:39:22;;;;;;;;;;;;;;;24.66;60.47;100291.25;5382198;32;35421;-76
2022/06/29 02:42:24;;;;;;;;;;;;;;;25.26;57.55;100282.56;5366813;32;34204;-69
2022/06/29 02:45:45;;;;;;;;;;;;;;;25.52;56.84;100291.50;5370220;32;45030;-86
2022/06/29 02:48:47;;;;;;;;;;;;;;;24.98;58.82;100297.94;5365475;32;35613;-71
2022/06/29 02:51:49;;;;;;;;;;;;;;;25.45;57.24;100289.59;5369227;32;35608;-71
2022/06/29 02:54:51;;;;;;;;;;;;;;;25.74;56.56;100290.12;5381453;32;35080;-71
2022/06/29 02:57:53;;;;;;;;;;;;;;;25.80;56.04;100289.50;5363602;32;34956;-77
2022/06/29 03:00:55;;;;;;;;;;;;;;;24.54;60.38;100292.50;5382092;32;34717;-84
2022/06/29 03:03:57;;;;;;;;;;;;;;;24.78;59.89;100287.34;5364456;32;35137;-69
2022/06/29 03:06:59;;;;;;;;;;;;;;;25.61;56.86;100290.53;5373772;32;34304;-70
2022/06/29 03:10:01;;;;;;;;;;;;;;;25.28;58.07;100286.78;5365063;32;35749;-69
2022/06/29 03:13:02;;;;;;;;;;;;;;;24.79;59.13;100293.56;5361531;32;34755;-69
2022/06/29 03:16:04;;;;;;;;;;;;;;;24.22;61.19;100285.75;5347864;32;35265;-70
2022/06/29 03:19:06;;;;;;;;;;;;;;;24.71;59.27;100288.13;5366997;32;34261;-77
2022/06/29 03:22:08;;;;;;;;;;;;;;;24.90;59.02;100297.87;5388399;32;44671;-83
2022/06/29 03:25:10;;;;;;;;;;;;;;;25.81;55.56;100311.87;5365497;32;34140;-83
2022/06/29 03:28:12;;;;;;;;;;;;;;;24.63;59.02;100310.38;5377977;32;35540;-70
2022/06/29 03:31:14;;;;;;;;;;;;;;;24.85;58.77;100309.06;5368093;32;35123;-86
2022/06/29 03:34:16;;;;;;;;;;;;;;;25.60;55.82;100298.78;5361688;32;34963;-70
2022/06/29 03:37:18;;;;;;;;;;;;;;;24.83;57.91;100305.69;5383940;32;35551;-70
2022/06/29 03:40:20;;;;;;;;;;;;;;;24.82;58.09;100304.84;5367330;32;34735;-69
2022/06/29 03:43:22;;;;;;;;;;;;;;;25.80;54.63;100308.34;5379406;32;34534;-84
2022/06/29 03:46:24;;;;;;;;;;;;;;;25.87;54.26;100301.28;5362514;32;34956;-86
2022/06/29 03:49:26;;;;;;;;;;;;;;;25.53;55.12;100306.62;5375521;32;35676;-86
2022/06/29 03:52:28;;;;;;;;;;;;;;;26.30;52.83;100301.31;5369030;32;35109;-71
2022/06/29 03:55:30;;;;;;;;;;;;;;;26.03;53.49;100299.72;5363680;32;34870;-71
2022/06/29 03:58:31;;;;;;;;;;;;;;;25.96;52.97;100310.28;5379473;32;34779;-72
2022/06/29 04:01:33;;;;;;;;;;;;;;;26.74;51.09;100304.66;5364212;32;34237;-84
2022/06/29 04:04:35;;;;;;;;;;;;;;;26.98;49.80;100310.06;5376734;32;33941;-84
2022/06/29 04:07:38;;;;;;;;;;;;;;;26.18;51.88;100304.31;5362247;32;44965;-70
2022/06/29 04:10:39;;;;;;;;;;;;;;;25.85;52.40;100311.41;5375809;32;34717;-85
2022/06/29 04:13:41;;;;;;;;;;;;;;;26.46;50.87;100313.00;5369686;32;35162;-70
2022/06/29 04:16:43;;;;;;;;;;;;;;;26.43;50.71;100305.25;5337385;32;34924;-86
2022/06/29 04:19:45;;;;;;;;;;;;;;;27.26;48.61;100296.28;5379692;32;35254;-85
2022/06/29 04:22:47;;;;;;;;;;;;;;;26.91;49.48;100300.09;5362046;32;34672;-85
2022/06/29 04:25:49;;;;;;;;;;;;;;;27.15;48.69;100286.66;5382726;32;35116;-70
2022/06/29 04:28:51;;;;;;;;;;;;;;;27.56;47.63;100291.16;5365327;32;34937;-77
2022/06/29 04:31:53;;;;;;;;;;;;;;;27.36;47.70;100299.62;5378465;32;34886;-85
2022/06/29 04:34:55;;;;;;;;;;;;;;;26.92;49.34;100307.19;5366480;32;35402;-85
2022/06/29 04:37:57;;;;;;;;;;;;;;;27.54;47.27;100302.13;5364562;32;35362;-84
2022/06/29 04:41:02;;;;;;;;;;;;;;;26.96;48.30;100304.00;5383128;32;34847;-85
2022/06/29 04:44:04;;;;;;;;;;;;;;;27.87;46.29;100297.50;5366105;32;35289;-86
2022/06/29 04:47:05;;;;;;;;;;;;;;;27.98;45.45;100305.25;5380355;32;35637;-70
2022/06/29 04:50:08;;;;;;;;;;;;;;;27.77;45.76;100296.88;5361383;32;44697;-72
2022/06/29 04:53:09;;;;;;;;;;;;;;;28.40;44.27;100304.06;5373948;32;35457;-69
2022/06/29 04:56:12;;;;;;;;;;;;;;;28.44;44.54;100302.69;5371947;32;34921;-70
2022/06/29 04:59:15;;;;;;;;;;;;;;;28.88;43.37;100305.59;5366120;32;35597;-85
2022/06/29 05:02:17;;;;;;;;;;;;;;;29.53;41.62;100298.84;5379726;32;35683;-77
2022/06/29 05:05:19;;;;;;;;;;;;;;;29.29;41.95;100304.44;5359716;32;34935;-70
2022/06/29 05:08:21;;;;;;;;;;;;;;;29.70;40.23;100302.22;5376961;32;35471;-83
2022/06/29 05:11:23;;;;;;;;;;;;;;;28.52;43.73;100282.88;5363748;32;34894;-90
2022/06/29 05:14:26;;;;;;;;;;;;;;;29.46;41.87;100305.16;5359162;32;36889;-74
2022/06/29 05:17:35;;;;;;;;;;;;;;;30.58;39.24;100308.56;5358618;32;34236;-78
2022/06/29 05:20:37;;;;;;;;;;;;;;;30.25;39.53;100316.31;5368331;32;43260;-73
2022/06/29 05:23:39;;;;;;;;;;;;;;;29.90;40.91;100311.47;5378398;32;35706;-74
2022/06/29 05:26:42;;;;;;;;;;;;;;;30.47;39.07;100312.63;5362111;32;34523;-76
2022/06/29 05:29:44;;;;;;;;;;;;;;;30.63;39.16;100314.25;5373130;32;34900;-73
2022/06/29 05:32:46;;;;;;;;;;;;;;;31.39;37.48;100307.31;5357516;32;34939;-75
2022/06/29 05:35:48;;;;;;;;;;;;;;;30.61;39.19;100310.91;5366105;32;35423;-78
2022/06/29 05:38:50;;;;;;;;;;;;;;;30.80;38.52;100309.47;5365674;32;35649;-76
2022/06/29 05:41:52;;;;;;;;;;;;;;;31.40;37.88;100302.72;5339670;32;35492;-80
2022/06/29 05:44:53;;;;;;;;;;;;;;;31.65;37.46;100297.69;5373746;32;34687;-79
2022/06/29 05:47:55;;;;;;;;;;;;;;;30.80;38.28;100287.78;5363304;32;34311;-73
2022/06/29 05:50:57;;;;;;;;;;;;;;;32.14;36.25;100303.00;5376458;32;34809;-73
2022/06/29 05:53:59;;;;;;;;;;;;;;;31.79;36.21;100300.28;5361444;32;33483;-73
2022/06/29 05:57:01;;;;;;;;;;;;;;;31.91;36.44;100292.41;5364681;32;34126;-90
2022/06/29 06:00:04;;;;;;;;;;;;;;;31.58;36.87;100281.34;5374398;32;34048;-77
2022/06/29 06:03:06;;;;;;;;;;;;;;;31.63;37.03;100288.91;5362016;32;35704;-73
2022/06/29 06:06:08;;;;;;;;;;;;;;;33.68;33.30;100282.09;5377183;32;46766;-85
2022/06/29 06:09:10;;;;;;;;;;;;;;;33.92;32.35;100269.66;5362580;32;34316;-83
2022/06/29 06:12:12;;;;;;;;;;;;;;;34.16;32.36;100280.91;5379878;32;34413;-74
2022/06/29 06:15:14;;;;;;;;;;;;;;;33.50;33.25;100270.19;5344693;32;34313;-66
2022/06/29 06:18:16;;;;;;;;;;;;;;;32.70;34.74;100280.16;5366255;32;34480;-83
2022/06/29 06:21:18;;;;;;;;;;;;;;;33.53;33.09;100278.75;5376718;32;34203;-72
2022/06/29 06:24:20;;;;;;;;;;;;;;;36.20;29.05;100272.09;5363184;32;34580;-83
2022/06/29 06:27:22;;;;;;;;;;;;;;;34.29;31.97;100271.84;5370204;32;34242;-77
2022/06/29 06:30:25;;;;;;;;;;;;;;;33.35;33.59;100275.81;5366326;32;33676;-79
2022/06/29 06:33:29;;;;;;;;;;;;;;;34.98;30.71;100262.84;5380399;32;37765;-77
2022/06/29 06:36:31;;;;;;;;;;;;;;;36.06;28.96;100271.41;5356644;32;34233;-72
2022/06/29 06:39:33;;;;;;;;;;;;;;;36.09;29.07;100253.72;5354594;32;33025;-73
2022/06/29 06:42:35;;;;;;;;;;;;;;;36.59;28.36;100258.94;5382349;32;34166;-77
2022/06/29 06:45:37;;;;;;;;;;;;;;;35.68;30.07;100266.19;5365931;32;43238;-84
2022/06/29 06:48:39;;;;;;;;;;;;;;;34.93;31.03;100258.03;5384248;32;35277;-74
2022/06/29 06:51:41;;;;;;;;;;;;;;;35.54;29.48;100261.91;5357975;32;34294;-84
2022/06/29 06:54:44;;;;;;;;;;;;;;;36.81;27.84;100257.31;5377367;32;34345;-76
2022/06/29 06:57:46;;;;;;;;;;;;;;;36.51;27.94;100254.63;5366972;32;35792;-77
2022/06/29 07:00:48;;;;;;;;;;;;;;;35.79;29.36;100248.16;5377551;32;34630;-80
2022/06/29 07:03:51;;;;;;;;;;;;;;;35.92;28.98;100255.41;5369885;32;34021;-80
2022/06/29 07:06:53;;;;;;;;;;;;;;;37.25;26.94;100246.09;5356330;32;34350;-80
2022/06/29 07:09:55;;;;;;;;;;;;;;;35.25;30.14;100253.34;5377432;32;35796;-83
2022/06/29 07:12:57;;;;;;;;;;;;;;;34.28;31.36;100254.63;5364839;32;35482;-80
2022/06/29 07:15:59;;;;;;;;;;;;;;;36.93;28.13;100251.06;5353771;32;34894;-71
2022/06/29 07:19:04;;;;;;;;;;;;;;;37.65;27.11;100244.28;5362532;32;35579;-79
2022/06/29 07:22:06;;;;;;;;;;;;;;;34.96;30.79;100249.38;5365389;32;34169;-75
2022/06/29 07:25:08;;;;;;;;;;;;;;;35.69;30.17;100240.50;5355526;32;44635;-74
2022/06/29 07:28:11;;;;;;;;;;;;;;;35.49;30.30;100238.00;5331386;32;1139844;-68
2022/06/29 07:31:13;;;;;;;;;;;;;;;36.54;28.87;100223.22;5359570;32;35680;-81
2022/06/29 07:34:15;;;;;;;;;;;;;;;36.66;28.34;100234.22;5353678;32;37279;-69
2022/06/29 07:37:19;;;;;;;;;;;;;;;35.89;29.09;100239.44;5373237;32;35612;-77
2022/06/29 07:40:21;;;;;;;;;;;;;;;37.48;27.24;100228.81;5367196;32;34323;-72
2022/06/29 07:43:23;;;;;;;;;;;;;;;38.22;25.95;100238.06;5359967;32;34819;-73
2022/06/29 07:46:25;;;;;;;;;;;;;;;38.72;24.66;100234.66;5376399;32;33652;-74
2022/06/29 07:49:28;;;;;;;;;;;;;;;37.51;26.06;100239.31;5363281;32;34266;-71
2022/06/29 07:52:32;;;;;;;;;;;;;;;39.07;23.89;100225.31;5377178;32;35520;-75
2022/06/29 07:55:35;;;;;;;;;;;;;;;38.68;24.52;100222.44;5361534;32;34274;-80
2022/06/29 07:58:36;;;;;;;;;;;;;;;38.23;25.61;100223.25;5378000;32;34168;-76
2022/06/29 08:01:38;;;;;;;;;;;;;;;36.86;27.15;100218.28;5364975;32;44500;-81
2022/06/29 08:04:40;;;;;;;;;;;;;;;38.98;24.62;100217.50;5361921;32;34597;-78
2022/06/29 08:08:03;;;;;;;;;;;;;;;38.51;24.97;100219.69;5379104;32;35133;-77
2022/06/29 08:11:06;;;;;;;;;;;;;;;38.08;25.48;100220.25;5365256;32;32396;-83
2022/06/29 08:14:08;;;;;;;;;;;;;;;38.55;24.55;100212.63;5365885;32;44728;-77
2022/06/29 08:17:10;;;;;;;;;;;;;;;39.11;23.58;100212.72;5350902;32;33438;-77
2022/06/29 08:20:12;;;;;;;;;;;;;;;38.65;23.96;100211.97;5374131;32;34264;-88
2022/06/29 08:23:14;;;;;;;;;;;;;;;40.24;22.15;100204.88;5390327;32;35175;-84
2022/06/29 08:26:16;;;;;;;;;;;;;;;39.27;22.95;100209.13;5367691;32;34257;-76
2022/06/29 08:29:37;;;;;;;;;;;;;;;41.26;20.47;100195.56;5376308;32;43364;-73
2022/06/29 08:32:40;;;;;;;;;;;;;;;40.95;20.93;100196.44;5365761;32;35627;-71
2022/06/29 08:35:42;;;;;;;;;;;;;;;40.69;21.20;100198.97;5375437;32;34928;-78
2022/06/29 08:38:44;;;;;;;;;;;;;;;43.20;17.61;100196.81;5368360;32;36071;-68
2022/06/29 08:41:48;;;;;;;;;;;;;;;41.13;19.97;100196.03;5363551;32;34517;-79
2022/06/29 08:44:50;;;;;;;;;;;;;;;40.06;21.29;100195.91;5372674;32;35753;-73
2022/06/29 08:47:52;;;;;;;;;;;;;;;38.87;22.85;100190.09;5358289;32;36074;-74
2022/06/29 08:50:54;;;;;;;;;;;;;;;40.09;21.36;100186.28;5380642;32;34291;-83
2022/06/29 08:53:56;;;;;;;;;;;;;;;41.46;20.03;100186.59;5362284;32;32106;-77
2022/06/29 08:56:58;;;;;;;;;;;;;;;40.38;21.14;100172.25;5374285;32;34180;-73
2022/06/29 09:00:00;;;;;;;;;;;;;;;40.15;20.91;100185.25;5366745;32;34372;-74
2022/06/29 09:03:04;;;;;;;;;;;;;;;41.35;19.55;100177.44;5365444;32;34357;-72
2022/06/29 09:06:06;;;;;;;;;;;;;;;41.76;18.26;100180.41;5376258;32;35382;-73
2022/06/29 09:09:09;;;;;;;;;;;;;;;42.70;17.57;100172.81;5361062;32;45056;-86
2022/06/29 09:12:13;;;;;;;;;;;;;;;42.19;18.18;100176.41;5371663;32;35387;-83
2022/06/29 09:15:15;;;;;;;;;;;;;;;42.31;18.06;100167.81;5349094;32;34228;-72
2022/06/29 09:18:25;;;;;;;;;;;;;;;42.51;18.06;100158.75;5366141;32;34332;-77
2022/06/29 09:21:27;;;;;;;;;;;;;;;43.53;16.05;100158.56;5371358;32;34090;-77
2022/06/29 09:24:30;;;;;;;;;;;;;;;43.31;16.02;100155.31;5364348;32;32426;-72
2022/06/29 09:27:35;;;;;;;;;;;;;;;42.84;16.83;100162.87;5379634;32;34431;-71
2022/06/29 09:30:40;;;;;;;;;;;;;;;43.91;15.87;100165.31;5363646;32;44891;-75
2022/06/29 09:33:42;;;;;;;;;;;;;;;42.44;17.29;100153.47;5374578;32;35605;-70
2022/06/29 09:36:54;;;;;;;;;;;;;;;42.84;16.42;100153.75;5367261;32;34968;-68
2022/06/29 09:39:56;;;;;;;;;;;;;;;44.60;14.99;100152.37;5357499;32;36625;-73
2022/06/29 09:42:58;;;;;;;;;;;;;;;43.14;16.72;100155.63;5378162;32;35272;-80
2022/06/29 09:46:01;;;;;;;;;;;;;;;43.34;16.46;100141.72;5357346;32;34898;-73
2022/06/29 09:49:03;;;;;;;;;;;;;;;43.74;15.28;100138.00;5369443;32;34234;-72
2022/06/29 09:52:06;;;;;;;;;;;;;;;43.22;15.68;100135.72;5353754;32;34154;-72
2022/06/29 09:55:10;;;;;;;;;;;;;;;44.17;14.78;100143.84;5370721;32;44950;-72
2022/06/29 09:58:13;;;;;;;;;;;;;;;44.17;14.40;100137.44;5354801;32;35814;-79
2022/06/29 10:04:36;;;;;;;;;;;;;;;43.58;15.31;100133.62;5363930;32;34213;-77
2022/06/29 10:07:39;;;;;;;;;;;;;;;44.49;14.13;100126.66;5365689;32;46362;-75
2022/06/29 10:10:42;;;;;;;;;;;;;;;44.72;13.32;100127.06;5378021;32;34340;-73
2022/06/29 10:13:44;;;;;;;;;;;;;;;44.64;13.69;100116.62;5359435;32;34733;-73
2022/06/29 10:16:50;;;;;;;;;;;;;;;44.44;13.77;100101.81;5344750;32;34223;-76
2022/06/29 10:20:03;;;;;;;;;;;;;;;43.84;14.43;100109.44;5375573;32;35396;-79
2022/06/29 10:23:05;;;;;;;;;;;;;;;42.83;15.20;100105.97;5364133;32;34208;-70
2022/06/29 10:29:32;;;;;;;;;;;;;;;45.14;12.57;100103.31;5369966;32;37170;-73
2022/06/29 10:32:34;;;;;;;;;;;;;;;44.05;13.57;100099.03;5365255;32;34114;-82
2022/06/29 10:35:58;;;;;;;;;;;;;;;43.59;14.56;100099.31;5375507;32;34517;-77
2022/06/29 10:39:03;;;;;;;;;;;;;;;45.47;12.85;100090.41;5362555;32;34587;-79
2022/06/29 10:45:32;;;;;;;;;;;;;;;44.94;12.75;100073.84;5365620;32;36367;-78
2022/06/29 10:48:34;;;;;;;;;;;;;;;46.03;11.85;100093.19;5356617;32;37047;-68
2022/06/29 10:51:36;;;;;;;;;;;;;;;45.88;12.23;100085.13;5386768;32;34565;-69
2022/06/29 10:54:41;;;;;;;;;;;;;;;44.78;12.83;100076.81;5367222;32;44800;-75
2022/06/29 10:57:44;;;;;;;;;;;;;;;43.66;13.38;100080.47;5377834;32;35391;-76
2022/06/29 11:00:53;;;;;;;;;;;;;;;45.34;12.30;100078.09;5356812;32;33124;-83
2022/06/29 11:03:55;;;;;;;;;;;;;;;45.35;12.45;100065.91;5379267;32;34363;-82
2022/06/29 11:13:49;;;;;;;;;;;;;;;47.29;10.69;100045.88;5382673;32;46320;-83
2022/06/29 11:16:52;;;;;;;;;;;;;;;45.75;12.13;100042.31;5353407;32;34366;-72
2022/06/29 11:19:54;;;;;;;;;;;;;;;45.67;11.88;100050.44;5376210;32;34421;-70
2022/06/29 11:22:56;;;;;;;;;;;;;;;46.18;12.15;100044.91;5355664;32;35545;-81
2022/06/29 11:25:59;;;;;;;;;;;;;;;46.90;11.46;100031.38;5359230;32;34210;-71
2022/06/29 11:29:02;;;;;;;;;;;;;;;47.15;11.25;100037.53;5375594;32;34490;-70
2022/06/29 11:32:04;;;;;;;;;;;;;;;46.89;11.15;100032.50;5355105;32;34347;-75
2022/06/29 11:35:07;;;;;;;;;;;;;;;46.24;10.96;100032.59;5376419;32;35125;-78
2022/06/29 11:38:13;;;;;;;;;;;;;;;46.26;10.97;100029.53;5348827;32;43646;-73
2022/06/29 11:41:24;;;;;;;;;;;;;;;43.78;13.25;100019.25;5373421;32;35782;-73
2022/06/29 11:44:30;;;;;;;;;;;;;;;45.11;11.95;100011.28;5364195;32;35428;-77
2022/06/29 11:47:31;;;;;;;;;;;;;;;45.92;11.48;100011.19;5361598;32;34582;-70
2022/06/29 11:50:40;;;;;;;;;;;;;;;45.96;11.57;100006.69;5376949;32;34300;-75
2022/06/29 11:53:43;;;;;;;;;;;;;;;43.82;13.23;100003.72;5356154;32;44759;-80
2022/06/29 11:56:46;;;;;;;;;;;;;;;46.22;11.51;99995.97;5372749;32;35418;-77
2022/06/29 11:59:48;;;;;;;;;;;;;;;46.38;10.44;100004.84;5366033;32;34273;-80
2022/06/29 12:02:56;;;;;;;;;;;;;;;45.86;11.82;100006.84;5364560;32;34781;-81
2022/06/29 12:05:59;;;;;;;;;;;;;;;44.03;13.30;99996.88;5371964;32;35810;-75
2022/06/29 12:09:02;;;;;;;;;;;;;;;42.17;14.24;99998.31;5370907;32;34203;-80
2022/06/29 12:12:05;;;;;;;;;;;;;;;40.92;15.52;99998.59;5374664;32;34371;-84
2022/06/29 12:15:08;;;;;;;;;;;;;;;40.53;16.28;99990.66;5353803;32;44829;-75
2022/06/29 12:18:10;;;;;;;;;;;;;;;40.26;16.72;99997.09;5371805;32;35634;-76
2022/06/29 12:21:12;;;;;;;;;;;;;;;39.98;17.03;99989.12;5368789;32;35230;-76
2022/06/29 12:24:15;;;;;;;;;;;;;;;38.88;18.45;99977.50;5368582;32;34229;-84
2022/06/29 12:27:18;;;;;;;;;;;;;;;39.21;18.21;99973.78;5380760;32;34318;-81
2022/06/29 12:30:20;;;;;;;;;;;;;;;39.32;18.00;99972.00;5368630;32;34802;-68
2022/06/29 12:33:22;;;;;;;;;;;;;;;38.27;18.97;99973.91;5378337;32;35625;-71
2022/06/29 12:36:24;;;;;;;;;;;;;;;38.50;18.41;99976.44;5365174;32;34891;-84
2022/06/29 12:39:25;;;;;;;;;;;;;;;38.85;18.39;99973.38;5375014;32;35778;-71
2022/06/29 12:42:28;;;;;;;;;;;;;;;38.60;18.45;99956.53;5352406;32;34680;-70
2022/06/29 12:45:31;;;;;;;;;;;;;;;38.64;17.91;99946.69;5365546;32;35516;-76
2022/06/29 12:48:35;;;;;;;;;;;;;;;37.75;18.79;99950.28;5377590;32;34427;-70
2022/06/29 12:51:37;;;;;;;;;;;;;;;38.07;18.27;99953.28;5368302;32;45084;-88
2022/06/29 12:54:39;;;;;;;;;;;;;;;38.33;18.28;99956.44;5382364;32;35351;-73
2022/06/29 12:57:41;;;;;;;;;;;;;;;38.11;17.74;99948.13;5362646;32;35200;-88
2022/06/29 13:00:43;;;;;;;;;;;;;;;38.33;17.36;99961.94;5373217;32;34089;-75
2022/06/29 13:03:46;;;;;;;;;;;;;;;38.25;17.92;99940.34;5368971;32;34818;-79
2022/06/29 13:06:48;;;;;;;;;;;;;;;38.31;18.03;99947.59;5366219;32;35688;-76
2022/06/29 13:09:50;;;;;;;;;;;;;;;38.26;17.96;99953.88;5379084;32;35807;-82
2022/06/29 13:12:52;;;;;;;;;;;;;;;38.12;18.26;99947.84;5367765;32;35435;-82
2022/06/29 13:15:54;;;;;;;;;;;;;;;38.07;18.33;99955.19;5360138;32;34893;-83
2022/06/29 13:18:56;;;;;;;;;;;;;;;38.00;18.27;99936.16;5354771;32;32973;-83
2022/06/29 13:21:59;;;;;;;;;;;;;;;38.10;18.18;99930.81;5376770;32;34126;-83
2022/06/29 13:25:01;;;;;;;;;;;;;;;38.12;18.08;99936.88;5372745;32;35018;-81
2022/06/29 13:28:03;;;;;;;;;;;;;;;37.54;19.00;99935.38;5366995;32;35921;-76
2022/06/29 13:31:06;;;;;;;;;;;;;;;37.67;18.77;99928.72;5384496;32;35479;-82
2022/06/29 13:34:08;;;;;;;;;;;;;;;37.55;19.25;99923.34;5374109;32;46812;-76
2022/06/29 13:37:10;;;;;;;;;;;;;;;38.24;18.57;99930.47;5388233;32;36246;-84
2022/06/29 13:40:12;;;;;;;;;;;;;;;38.16;18.00;99927.06;5379262;32;36865;-87
2022/06/29 13:43:19;;;;;;;;;;;;;;;38.04;18.08;99922.78;5373785;32;34520;-80
2022/06/29 13:46:21;;;;;;;;;;;;;;;37.71;18.43;99901.66;5380087;32;36162;-84
2022/06/29 13:49:23;;;;;;;;;;;;;;;38.03;18.28;99927.44;5375229;32;36640;-84
2022/06/29 13:52:29;;;;;;;;;;;;;;;37.82;18.65;99918.06;5380202;32;34253;-74
2022/06/29 13:55:31;;;;;;;;;;;;;;;37.68;18.83;99920.28;5363340;32;35401;-76
2022/06/29 13:58:33;;;;;;;;;;;;;;;37.73;18.49;99919.50;5378440;32;34083;-78
2022/06/29 14:01:35;;;;;;;;;;;;;;;37.59;18.92;99924.50;5364242;32;34555;-85
2022/06/29 14:04:40;;;;;;;;;;;;;;;38.10;18.58;99921.75;5367030;32;44771;-76
2022/06/29 14:07:44;;;;;;;;;;;;;;;38.15;18.66;99921.84;5375289;32;35939;-81
2022/06/29 14:11:06;;;;;;;;;;;;;;;38.00;18.76;99911.50;5365106;32;35982;-81
2022/06/29 14:14:08;;;;;;;;;;;;;;;37.96;18.86;99909.50;5368262;32;45074;-80
2022/06/29 14:17:11;;;;;;;;;;;;;;;38.13;18.18;99907.53;5354702;32;34800;-82
2022/06/29 14:20:12;;;;;;;;;;;;;;;38.15;17.89;99908.13;5381588;32;34124;-79
2022/06/29 14:23:14;;;;;;;;;;;;;;;37.68;18.29;99905.75;5378216;32;35529;-81
2022/06/29 14:26:17;;;;;;;;;;;;;;;38.17;18.05;99909.53;5376565;32;34282;-83
2022/06/29 14:29:19;;;;;;;;;;;;;;;37.88;18.53;99906.09;5386219;32;35243;-83
2022/06/29 14:32:21;;;;;;;;;;;;;;;38.16;18.52;99898.81;5373153;32;34339;-87
2022/06/29 14:35:28;;;;;;;;;;;;;;;38.15;18.49;99903.47;5391143;32;34482;-89
2022/06/29 14:38:30;;;;;;;;;;;;;;;37.81;18.85;99899.94;5369646;32;35032;-84
2022/06/29 14:41:32;;;;;;;;;;;;;;;37.09;19.60;99889.59;5377269;32;35809;-88
2022/06/29 14:44:34;;;;;;;;;;;;;;;37.51;18.99;99889.28;5382634;32;34866;-85
2022/06/29 14:47:36;;;;;;;;;;;;;;;37.63;18.59;99870.84;5376758;32;34924;-84
2022/06/29 14:50:38;;;;;;;;;;;;;;;37.55;19.04;99874.00;5389795;32;44707;-82
2022/06/29 14:53:40;;;;;;;;;;;;;;;37.68;18.92;99870.09;5374052;32;34724;-86
2022/06/29 14:56:43;;;;;;;;;;;;;;;37.56;19.03;99867.44;5389228;32;34449;-88
2022/06/29 15:00:05;;;;;;;;;;;;;;;37.61;18.99;99851.06;5372243;32;34787;-82
2022/06/29 15:03:07;;;;;;;;;;;;;;;37.71;18.83;99855.03;5374925;32;46116;-84
2022/06/29 15:06:10;;;;;;;;;;;;;;;37.56;18.78;99851.00;5393236;32;34743;-88
2022/06/29 15:09:12;;;;;;;;;;;;;;;37.42;18.97;99846.94;5374307;32;34890;-84
2022/06/29 15:12:14;;;;;;;;;;;;;;;37.44;18.86;99844.75;5387742;32;34597;-88
2022/06/29 15:15:16;;;;;;;;;;;;;;;37.49;18.56;99836.62;5354618;32;34087;-83
2022/06/29 15:18:19;;;;;;;;;;;;;;;37.72;18.51;99838.34;5380790;32;35505;-87
2022/06/29 15:21:21;;;;;;;;;;;;;;;37.35;19.25;99835.28;5383811;32;33337;-89
2022/06/29 15:24:35;;;;;;;;;;;;;;;37.46;19.12;99841.75;5378635;32;34385;-84
2022/06/29 15:27:37;;;;;;;;;;;;;;;37.52;19.01;99827.88;5386279;32;43609;-83
2022/06/29 15:30:39;;;;;;;;;;;;;;;36.67;19.98;99817.87;5375498;32;35355;-86
2022/06/29 15:40:23;;;;;;;;;;;;;;;37.44;18.76;99824.75;5372012;32;35084;-84
2022/06/29 15:43:25;;;;;;;;;;;;;;;37.43;18.86;99810.22;5382292;32;35400;-83
2022/06/29 15:46:28;;;;;;;;;;;;;;;37.49;18.77;99816.63;5367968;32;35736;-84
2022/06/29 15:49:31;;;;;;;;;;;;;;;37.56;18.88;99814.53;5390834;32;34024;-86
2022/06/29 15:52:33;;;;;;;;;;;;;;;37.75;18.70;99817.81;5375690;32;34846;-83
2022/06/29 15:55:36;;;;;;;;;;;;;;;37.68;18.68;99813.34;5393154;32;34100;-84
2022/06/29 15:58:38;;;;;;;;;;;;;;;37.33;19.03;99816.34;5373586;32;44933;-86
2022/06/29 16:01:42;;;;;;;;;;;;;;;37.49;18.92;99814.69;5371813;32;34332;-83
2022/06/29 16:04:45;;;;;;;;;;;;;;;37.58;18.74;99813.19;5385816;32;35472;-88
2022/06/29 16:07:47;;;;;;;;;;;;;;;37.37;18.97;99805.72;5368533;32;35405;-87